Time;durP1;ratioP1;P1;durP2;ratioP2;P2;SDS_P1;SDS_P2;PMS_P1;PMS_P2;Temp;Humidity;BMP_temperature;BMP_pressure;BME280_temperature;BME280_humidity;BME280_pressure;Samples;Min_cycle;Max_cycle;Signal;HPM_P1;HPM_P2
2021/01/11 00:00:52;;;;;;;18.45;13.72;;;;;;;5.65;56.84;102383.66;1730879;82;21117;-46
2021/01/11 00:03:21;;;;;;;20.32;14.93;;;;;;;5.62;57.08;102402.97;1727873;82;21149;-47
2021/01/11 00:05:49;;;;;;;18.17;14.60;;;;;;;5.61;57.49;102411.12;1720640;82;21153;-46
2021/01/11 00:08:18;;;;;;;20.45;14.80;;;;;;;5.60;57.83;102413.69;1727039;82;21157;-46
2021/01/11 00:10:47;;;;;;;26.57;18.57;;;;;;;5.59;58.21;102398.59;1724554;82;21193;-47
2021/01/11 00:13:15;;;;;;;28.52;19.85;;;;;;;5.59;58.37;102380.93;1734878;81;21172;-46
2021/01/11 00:15:44;;;;;;;22.40;17.62;;;;;;;5.59;58.81;102376.65;1738534;82;21177;-46
2021/01/11 00:18:12;;;;;;;25.20;19.60;;;;;;;5.59;59.07;102375.77;1726487;82;21581;-46
2021/01/11 00:20:41;;;;;;;28.90;21.73;;;;;;;5.59;59.20;102378.35;1737962;82;21298;-46
2021/01/11 00:23:09;;;;;;;28.77;22.20;;;;;;;5.60;59.48;102380.11;1729843;82;21141;-47
2021/01/11 00:25:39;;;;;;;31.50;23.67;;;;;;;5.59;59.56;102371.90;1732976;82;21315;-46
2021/01/11 00:28:07;;;;;;;31.90;24.65;;;;;;;5.59;59.56;102374.48;1735335;82;21136;-46
2021/01/11 00:30:35;;;;;;;36.70;25.90;;;;;;;5.56;59.63;102373.13;1729632;82;21129;-46
2021/01/11 00:33:04;;;;;;;38.55;28.47;;;;;;;5.52;59.71;102378.61;1736702;82;21148;-46
2021/01/11 00:35:32;;;;;;;37.70;26.25;;;;;;;5.52;59.88;102398.42;1734789;82;21192;-46
2021/01/11 00:38:02;;;;;;;36.60;25.90;;;;;;;5.53;59.87;102419.52;1738904;82;21137;-46
2021/01/11 00:40:30;;;;;;;37.53;26.77;;;;;;;5.52;59.77;102435.86;1732344;82;21283;-47
2021/01/11 00:42:59;;;;;;;37.83;27.22;;;;;;;5.53;59.72;102451.38;1730718;82;21609;-46
2021/01/11 00:45:27;;;;;;;37.65;27.05;;;;;;;5.56;59.81;102450.59;1736499;82;21113;-47
2021/01/11 00:47:56;;;;;;;39.18;27.40;;;;;;;5.57;59.81;102441.99;1729272;82;21144;-46
2021/01/11 00:50:24;;;;;;;35.13;26.20;;;;;;;5.55;59.81;102430.75;1734157;82;21557;-46
2021/01/11 00:52:52;;;;;;;37.55;27.48;;;;;;;5.53;59.68;102424.67;1732369;82;21189;-46
2021/01/11 00:55:22;;;;;;;40.20;29.75;;;;;;;5.52;59.85;102421.22;1733421;82;21577;-46
2021/01/11 00:57:58;;;;;;;35.40;24.95;;;;;;;5.54;60.17;102382.55;1727974;82;21164;-46
2021/01/11 01:00:29;;;;;;;35.17;26.52;;;;;;;5.57;60.29;102365.82;1731415;82;21160;-47
2021/01/11 01:03:20;;;;;;;34.45;25.85;;;;;;;5.61;59.88;102332.78;1797686;77;22244;-46
2021/01/11 01:05:49;;;;;;;38.02;25.97;;;;;;;5.58;59.58;102323.69;1740615;81;21160;-47
2021/01/11 01:08:17;;;;;;;33.58;23.83;;;;;;;5.58;59.32;102315.95;1749869;81;21152;-46
2021/01/11 01:10:45;;;;;;;31.02;22.90;;;;;;;5.56;59.40;102302.97;1737040;81;21549;-46
2021/01/11 01:13:13;;;;;;;29.37;21.70;;;;;;;5.56;59.37;102294.37;1751087;81;21124;-46
2021/01/11 01:15:41;;;;;;;33.75;23.83;;;;;;;5.54;59.42;102289.59;1749275;81;21128;-47
2021/01/11 01:18:10;;;;;;;34.03;24.25;;;;;;;5.53;59.50;102288.72;1752084;81;21189;-46
2021/01/11 01:20:38;;;;;;;32.23;22.48;;;;;;;5.53;59.78;102277.52;1734589;81;21321;-47
2021/01/11 01:23:06;;;;;;;32.05;22.82;;;;;;;5.54;60.05;102285.73;1751742;81;21187;-46
2021/01/11 01:25:35;;;;;;;33.30;23.85;;;;;;;5.56;60.37;102302.13;1740886;81;21140;-47
2021/01/11 01:28:04;;;;;;;28.50;21.82;;;;;;;5.59;60.57;102299.59;1740285;81;21215;-46
2021/01/11 01:30:32;;;;;;;28.42;21.45;;;;;;;5.62;60.76;102295.81;1752808;81;21156;-46
2021/01/11 01:33:01;;;;;;;30.88;22.27;;;;;;;5.64;60.77;102305.34;1760663;81;21156;-46
2021/01/11 01:35:30;;;;;;;30.25;22.60;;;;;;;5.64;60.85;102304.46;1760329;81;21155;-46
2021/01/11 01:37:59;;;;;;;30.48;22.35;;;;;;;5.64;60.96;102301.88;1760312;81;21124;-46
2021/01/11 01:40:28;;;;;;;31.93;21.55;;;;;;;5.64;61.02;102306.64;1749155;81;21346;-46
2021/01/11 01:42:56;;;;;;;31.95;21.12;;;;;;;5.65;61.02;102313.94;1728566;81;21164;-46
2021/01/11 01:45:24;;;;;;;29.27;20.68;;;;;;;5.66;61.12;102319.57;1760254;81;21128;-47
2021/01/11 01:47:53;;;;;;;28.67;21.85;;;;;;;5.67;61.32;102327.76;1740438;81;21168;-46
2021/01/11 01:50:21;;;;;;;29.27;21.15;;;;;;;5.67;61.42;102323.47;1741129;81;21306;-47
2021/01/11 01:52:49;;;;;;;31.80;22.42;;;;;;;5.67;61.61;102314.84;1756819;81;21176;-47
2021/01/11 01:55:17;;;;;;;34.10;25.12;;;;;;;5.66;61.82;102307.54;1735958;81;21159;-46
2021/01/11 01:57:45;;;;;;;35.48;26.15;;;;;;;5.65;62.00;102308.77;1748884;81;21140;-46
2021/01/11 02:00:16;;;;;;;34.15;24.32;;;;;;;5.64;62.14;102321.25;1760417;81;21643;-46
2021/01/11 02:02:45;;;;;;;32.50;23.32;;;;;;;5.61;62.31;102319.88;1735317;81;21200;-46
2021/01/11 02:05:14;;;;;;;31.10;23.05;;;;;;;5.64;62.45;102318.66;1725655;83;21608;-46
2021/01/11 02:07:50;;;;;;;30.85;22.82;;;;;;;5.62;62.63;102311.30;1721345;83;21164;-46
2021/01/11 02:10:44;;;;;;;29.77;21.07;;;;;;;5.67;62.63;102325.17;1713701;83;21601;-46
2021/01/11 02:13:33;;;;;;;34.80;24.47;;;;;;;5.68;62.71;102314.02;1715415;83;21161;-46
2021/01/11 02:16:09;;;;;;;33.92;24.50;;;;;;;5.69;62.78;102323.50;1724596;83;21168;-46
2021/01/11 02:19:07;;;;;;;31.90;22.02;;;;;;;5.71;62.89;102326.58;1721720;83;21315;-46
2021/01/11 02:22:07;;;;;;;30.05;22.48;;;;;;;5.72;62.96;102328.75;1719090;83;21582;-46
2021/01/11 02:25:15;;;;;;;28.07;22.17;;;;;;;5.71;63.09;102323.11;1719521;83;21157;-47
2021/01/11 02:27:53;;;;;;;30.08;21.85;;;;;;;5.71;63.12;102328.28;1723812;83;21573;-46
2021/01/11 02:30:37;;;;;;;31.20;23.67;;;;;;;5.66;62.99;102311.41;1697249;83;21609;-46
2021/01/11 02:33:09;;;;;;;35.73;23.92;;;;;;;5.62;63.07;102298.39;1668259;86;21303;-47
2021/01/11 02:35:59;;;;;;;31.55;22.30;;;;;;;5.59;63.25;102270.78;1695079;85;21163;-47
2021/01/11 02:38:27;;;;;;;30.75;22.27;;;;;;;5.61;63.37;102265.64;1683176;84;21312;-46
2021/01/11 02:40:57;;;;;;;28.20;22.07;;;;;;;5.59;63.45;102262.16;1675615;85;21171;-47
2021/01/11 02:43:25;;;;;;;25.10;18.42;;;;;;;5.59;63.43;102273.77;1705085;84;21372;-46
2021/01/11 02:45:53;;;;;;;28.35;20.12;;;;;;;5.56;63.36;102272.44;1665530;86;21172;-47
2021/01/11 02:48:30;;;;;;;26.37;20.12;;;;;;;5.55;63.44;102269.38;1695156;85;21207;-47
2021/01/11 02:51:25;;;;;;;27.02;21.48;;;;;;;5.53;63.52;102267.19;1679632;84;21146;-47
2021/01/11 02:54:17;;;;;;;24.27;19.40;;;;;;;5.53;63.65;102278.80;1694848;85;21167;-46
2021/01/11 02:57:03;;;;;;;27.30;18.95;;;;;;;5.54;64.00;102268.95;1698811;84;21261;-46
2021/01/11 02:59:46;;;;;;;26.30;19.02;;;;;;;5.56;64.05;102251.78;1670421;85;21316;-46
2021/01/11 03:02:21;;;;;;;25.48;19.75;;;;;;;5.62;63.88;102247.63;1771494;79;22845;-46
2021/01/11 03:04:50;;;;;;;24.87;19.65;;;;;;;5.57;63.70;102258.26;1736454;82;22232;-46
2021/01/11 03:07:18;;;;;;;34.18;22.10;;;;;;;5.55;63.61;102257.77;1737957;82;21145;-46
2021/01/11 03:09:47;;;;;;;27.77;19.90;;;;;;;5.53;63.64;102260.31;1741029;82;21270;-46
2021/01/11 03:12:16;;;;;;;27.77;19.82;;;;;;;5.53;63.61;102265.89;1737813;82;21172;-47
2021/01/11 03:14:44;;;;;;;23.62;18.60;;;;;;;5.54;63.70;102279.27;1734837;82;21313;-47
2021/01/11 03:17:12;;;;;;;25.92;20.00;;;;;;;5.54;63.77;102292.19;1739235;82;21327;-47
2021/01/11 03:19:40;;;;;;;26.45;19.27;;;;;;;5.53;63.90;102290.42;1738087;82;21160;-47
2021/01/11 03:22:09;;;;;;;25.65;19.32;;;;;;;5.54;63.89;102292.19;1738793;82;21302;-47
2021/01/11 03:24:37;;;;;;;26.37;18.62;;;;;;;5.56;64.05;102285.34;1737256;81;21152;-47
2021/01/11 03:27:05;;;;;;;24.95;20.62;;;;;;;5.55;64.10;102279.70;1737100;82;21172;-47
2021/01/11 03:29:34;;;;;;;24.52;18.82;;;;;;;5.54;64.02;102277.53;1743115;82;21137;-47
2021/01/11 03:32:03;;;;;;;27.10;19.35;;;;;;;5.54;64.21;102274.95;1732200;82;21572;-47
2021/01/11 03:34:32;;;;;;;27.27;18.12;;;;;;;5.53;64.29;102287.84;1732053;82;21158;-47
2021/01/11 03:37:00;;;;;;;26.30;19.45;;;;;;;5.54;64.30;102292.19;1742619;82;21152;-47
2021/01/11 03:39:29;;;;;;;24.65;19.12;;;;;;;5.53;64.36;102294.30;1736935;82;21287;-47
2021/01/11 03:41:59;;;;;;;24.07;19.52;;;;;;;5.52;64.55;102291.27;1737815;82;21706;-47
2021/01/11 03:44:28;;;;;;;30.43;20.43;;;;;;;5.53;64.57;102283.97;1741770;82;21113;-47
2021/01/11 03:46:56;;;;;;;27.75;20.40;;;;;;;5.53;64.63;102290.42;1734698;82;21221;-47
2021/01/11 03:49:25;;;;;;;24.98;19.35;;;;;;;5.53;64.64;102302.92;1741096;82;21302;-47
2021/01/11 03:52:02;;;;;;;26.10;19.67;;;;;;;5.52;64.67;102311.93;1737445;82;21141;-47
2021/01/11 03:54:31;;;;;;;23.27;19.67;;;;;;;5.52;64.92;102311.48;1736916;82;21141;-47
2021/01/11 03:57:00;;;;;;;23.50;18.92;;;;;;;5.52;64.92;102308.05;1737209;82;21168;-47
2021/01/11 03:59:28;;;;;;;25.52;19.00;;;;;;;5.52;65.08;102317.94;1732107;82;21184;-47
2021/01/11 04:01:57;;;;;;;25.52;19.00;;;;;;;5.52;65.10;102317.94;1725082;82;21306;-47
2021/01/11 04:04:25;;;;;;;27.05;20.32;;;;;;;5.52;65.10;102324.84;1728414;82;21156;-47
2021/01/11 04:06:54;;;;;;;26.25;19.02;;;;;;;5.52;65.18;102323.55;1724094;82;21205;-47
2021/01/11 04:09:22;;;;;;;23.55;18.80;;;;;;;5.53;65.33;102337.77;1725661;82;21172;-47
2021/01/11 04:11:51;;;;;;;23.40;19.57;;;;;;;5.54;65.30;102347.69;1726627;82;21271;-47
2021/01/11 04:14:20;;;;;;;22.48;18.85;;;;;;;5.53;65.45;102335.60;1735722;82;21153;-47
2021/01/11 04:16:53;;;;;;;27.70;18.57;;;;;;;5.53;65.50;102350.69;1725034;82;21172;-47
2021/01/11 04:19:21;;;;;;;24.20;19.65;;;;;;;5.55;65.45;102355.87;1732212;82;21993;-47
2021/01/11 04:21:50;;;;;;;25.95;18.55;;;;;;;5.57;65.52;102343.88;1725606;82;21161;-47
2021/01/11 04:24:19;;;;;;;22.40;17.65;;;;;;;5.58;65.59;102340.47;1723387;82;21291;-47
2021/01/11 04:26:47;;;;;;;24.05;17.75;;;;;;;5.59;65.61;102349.95;1723026;82;21149;-47
2021/01/11 04:29:15;;;;;;;22.70;18.65;;;;;;;5.58;65.68;102357.25;1728840;82;21271;-47
2021/01/11 04:31:49;;;;;;;23.62;18.48;;;;;;;5.55;65.82;102359.75;1718500;82;21158;-47
2021/01/11 04:34:17;;;;;;;25.23;20.62;;;;;;;5.52;65.83;102354.53;1725964;82;21154;-47
2021/01/11 04:36:45;;;;;;;24.67;19.32;;;;;;;5.53;65.95;102353.67;1719363;82;21156;-47
2021/01/11 04:39:13;;;;;;;23.45;18.65;;;;;;;5.52;66.11;102345.49;1727682;82;21172;-47
2021/01/11 04:41:42;;;;;;;21.17;17.10;;;;;;;5.54;66.21;102348.98;1724531;82;21141;-47
2021/01/11 04:44:12;;;;;;;25.00;18.77;;;;;;;5.56;66.26;102356.34;1723003;82;21165;-47
2021/01/11 04:46:40;;;;;;;23.83;18.52;;;;;;;5.55;66.15;102364.91;1728776;82;21574;-47
2021/01/11 04:49:08;;;;;;;24.67;18.65;;;;;;;5.53;66.24;102366.17;1721164;82;21270;-47
2021/01/11 04:51:40;;;;;;;25.05;19.45;;;;;;;5.54;66.30;102356.73;1726562;82;21315;-47
2021/01/11 04:54:09;;;;;;;21.82;17.42;;;;;;;5.53;66.24;102369.17;1724390;82;21299;-47
2021/01/11 04:56:39;;;;;;;22.50;18.55;;;;;;;5.51;66.11;102378.59;1725549;82;21220;-47
2021/01/11 04:59:08;;;;;;;23.85;18.75;;;;;;;5.49;66.31;102380.26;1683430;84;21172;-47
2021/01/11 05:01:36;;;;;;;23.57;18.37;;;;;;;5.47;66.36;102370.31;1688839;84;21186;-47
2021/01/11 05:04:05;;;;;;;22.07;17.52;;;;;;;5.46;66.23;102371.16;1630676;85;21588;-47
2021/01/11 05:06:33;;;;;;;23.35;18.92;;;;;;;5.44;66.14;102371.55;1635534;87;21185;-47
2021/01/11 05:09:07;;;;;;;22.98;18.00;;;;;;;5.42;66.34;102361.60;1664473;85;21274;-47
2021/01/11 05:11:35;;;;;;;22.52;18.95;;;;;;;5.42;66.60;102351.27;1667131;85;21145;-47
2021/01/11 05:14:04;;;;;;;26.35;18.82;;;;;;;5.44;66.64;102344.44;1668706;85;21593;-47
2021/01/11 05:16:32;;;;;;;22.07;17.20;;;;;;;5.46;66.46;102335.87;1665793;85;21164;-47
2021/01/11 05:19:26;;;;;;;27.45;20.68;;;;;;;5.46;66.33;102344.05;1635184;87;21154;-46
2021/01/11 05:21:55;;;;;;;24.77;19.95;;;;;;;5.44;66.39;102349.60;1666393;85;21573;-46
2021/01/11 05:24:40;;;;;;;22.10;17.87;;;;;;;5.45;66.49;102356.09;1665587;85;21318;-46
2021/01/11 05:27:14;;;;;;;24.72;18.80;;;;;;;5.49;66.63;102345.41;1810269;79;22978;-46
2021/01/11 05:29:42;;;;;;;24.95;18.37;;;;;;;5.44;66.58;102332.82;1764257;80;21168;-46
2021/01/11 05:32:11;;;;;;;25.15;19.25;;;;;;;5.42;66.53;102325.45;1780915;80;21168;-46
2021/01/11 05:34:49;;;;;;;24.35;19.27;;;;;;;5.41;66.65;102321.12;1774215;80;21180;-46
2021/01/11 05:37:37;;;;;;;32.10;21.27;;;;;;;5.40;66.59;102320.67;1737882;82;21110;-47
2021/01/11 05:40:13;;;;;;;26.15;19.62;;;;;;;5.39;66.60;102315.05;1743427;82;21205;-46
2021/01/11 05:42:43;;;;;;;24.05;18.55;;;;;;;5.31;66.87;102312.30;1737748;82;21119;-46
2021/01/11 05:45:27;;;;;;;23.38;18.35;;;;;;;5.32;66.74;102326.05;1738160;82;21166;-46
2021/01/11 05:48:10;;;;;;;26.20;19.67;;;;;;;5.31;66.82;102318.74;1738201;82;21126;-46
2021/01/11 05:50:50;;;;;;;23.83;19.65;;;;;;;5.35;66.93;102317.09;1798510;79;22211;-46
2021/01/11 05:53:25;;;;;;;26.42;19.60;;;;;;;5.31;66.86;102313.98;1775759;80;21167;-46
2021/01/11 05:55:56;;;;;;;24.90;19.20;;;;;;;5.29;66.67;102329.86;1741437;82;21232;-46
2021/01/11 05:58:25;;;;;;;24.80;18.92;;;;;;;5.24;66.81;102334.02;1741147;82;21222;-46
2021/01/11 06:00:55;;;;;;;24.57;19.90;;;;;;;5.19;66.92;102324.02;1730959;82;21171;-46
2021/01/11 06:03:24;;;;;;;27.20;19.25;;;;;;;5.18;66.97;102329.99;1738555;82;21159;-46
2021/01/11 06:05:53;;;;;;;27.58;20.43;;;;;;;5.14;67.07;102338.49;1739551;82;21149;-46
2021/01/11 06:08:21;;;;;;;27.90;21.52;;;;;;;5.13;67.11;102349.22;1741519;82;21191;-46
2021/01/11 06:10:50;;;;;;;27.30;20.40;;;;;;;5.14;67.13;102348.81;1741440;82;21175;-46
2021/01/11 06:13:20;;;;;;;26.07;20.20;;;;;;;5.12;67.09;102353.06;1739578;82;21155;-46
2021/01/11 06:15:49;;;;;;;28.42;20.40;;;;;;;5.10;67.15;102349.57;1735576;82;21199;-46
2021/01/11 06:18:18;;;;;;;27.13;19.55;;;;;;;5.07;67.23;102335.32;1733307;82;21147;-47
2021/01/11 06:20:48;;;;;;;23.30;18.73;;;;;;;5.06;67.31;102340.01;1736721;82;21163;-46
2021/01/11 06:23:29;;;;;;;25.35;20.85;;;;;;;5.06;67.38;102349.04;1750696;82;21155;-46
2021/01/11 06:25:58;;;;;;;25.30;19.02;;;;;;;5.04;67.43;102355.86;1741580;82;21147;-46
2021/01/11 06:28:35;;;;;;;24.15;19.40;;;;;;;5.03;67.59;102359.30;1737375;82;21179;-46
2021/01/11 06:31:13;;;;;;;27.22;20.32;;;;;;;5.01;67.70;102365.68;1733610;82;21136;-46
2021/01/11 06:33:43;;;;;;;28.25;20.25;;;;;;;5.03;67.55;102370.91;1738027;82;21297;-46
2021/01/11 06:36:19;;;;;;;26.90;20.05;;;;;;;5.01;67.65;102372.13;1738854;82;21151;-46
2021/01/11 06:38:48;;;;;;;25.00;19.77;;;;;;;5.00;67.68;102377.26;1738205;82;21147;-47
2021/01/11 06:41:18;;;;;;;25.15;20.12;;;;;;;5.01;67.79;102390.62;1739097;82;21156;-46
2021/01/11 06:43:53;;;;;;;25.08;18.95;;;;;;;5.00;67.89;102386.28;1731969;82;21577;-46
2021/01/11 06:46:42;;;;;;;25.08;18.70;;;;;;;4.99;67.93;102379.39;1741540;82;21708;-46
2021/01/11 06:49:07;;;;;;;24.50;17.92;;;;;;;4.94;67.98;102380.15;1730221;82;21573;-47
2021/01/11 06:51:44;;;;;;;25.23;19.05;;;;;;;4.89;68.03;102376.56;1686767;80;21120;-46
2021/01/11 06:54:14;;;;;;;27.70;21.50;;;;;;;4.86;68.10;102367.44;1770746;80;21139;-46
2021/01/11 06:56:43;;;;;;;29.55;20.25;;;;;;;4.82;68.29;102363.02;1763004;80;21136;-47
2021/01/11 06:59:13;;;;;;;28.60;22.45;;;;;;;4.82;68.58;102363.02;1768274;80;21188;-46
2021/01/11 07:01:41;;;;;;;30.50;21.77;;;;;;;4.84;68.80;102365.23;1757488;80;21156;-46
2021/01/11 07:04:11;;;;;;;27.82;21.15;;;;;;;4.88;68.69;102363.19;1763538;81;21127;-47
2021/01/11 07:06:43;;;;;;;24.98;20.12;;;;;;;4.89;68.58;102367.53;1759541;81;21180;-46
2021/01/11 07:09:15;;;;;;;30.80;21.65;;;;;;;4.89;68.43;102359.80;1766555;81;21140;-46
2021/01/11 07:11:45;;;;;;;27.98;20.92;;;;;;;4.88;68.58;102355.45;1763208;80;21164;-46
2021/01/11 07:14:14;;;;;;;30.95;19.67;;;;;;;4.91;68.71;102351.68;1762470;81;21138;-46
2021/01/11 07:19:43;;;;;;;26.02;19.77;;;;;;;5.00;68.78;102351.46;1771611;79;23000;-47
2021/01/11 07:22:11;;;;;;;28.42;21.30;;;;;;;4.97;68.86;102351.40;1738450;82;21628;-46
2021/01/11 07:24:40;;;;;;;27.30;20.85;;;;;;;5.00;68.73;102351.46;1737697;82;21311;-47
2021/01/11 07:27:09;;;;;;;25.90;19.20;;;;;;;5.07;68.68;102358.54;1734796;82;21207;-46
2021/01/11 07:29:38;;;;;;;25.15;19.15;;;;;;;5.09;68.73;102368.48;1737410;82;21160;-47
2021/01/11 07:32:06;;;;;;;27.85;20.52;;;;;;;5.14;68.61;102380.66;1741961;82;21617;-46
2021/01/11 07:34:35;;;;;;;27.93;21.40;;;;;;;5.13;68.58;102379.34;1741141;82;21135;-46
2021/01/11 07:37:04;;;;;;;29.23;21.00;;;;;;;5.15;68.56;102389.28;1740908;82;21141;-46
2021/01/11 07:39:33;;;;;;;26.12;20.02;;;;;;;5.18;68.50;102385.06;1738702;82;21197;-47
2021/01/11 07:42:05;;;;;;;23.87;18.90;;;;;;;5.24;68.56;102381.76;1735048;82;21310;-46
2021/01/11 07:44:36;;;;;;;25.32;19.42;;;;;;;5.30;68.38;102393.53;1737843;81;21573;-46
2021/01/11 07:47:16;;;;;;;26.07;20.20;;;;;;;5.40;68.11;102384.77;1771581;79;23081;-46
2021/01/11 07:49:50;;;;;;;;;;;;;;;5.40;67.86;102373.59;1738728;82;21197;-46
2021/01/11 07:52:25;;;;;;;24.07;17.85;;;;;;;5.43;67.67;102373.24;1736038;82;20140;-47
2021/01/11 07:55:04;;;;;;;25.37;19.07;;;;;;;5.42;67.54;102374.06;1737842;82;21159;-46
2021/01/11 07:57:33;;;;;;;28.02;21.05;;;;;;;5.42;67.47;102377.09;1667563;85;21668;-47
2021/01/11 08:00:11;;;;;;;29.25;19.75;;;;;;;5.36;67.38;102382.95;1670376;86;21188;-46
2021/01/11 08:02:44;;;;;;;26.62;18.90;;;;;;;5.31;67.56;102374.64;1665649;86;21224;-46
2021/01/11 08:05:24;;;;;;;26.12;22.48;;;;;;;5.34;67.75;102368.25;1756437;79;28429;-46
2021/01/11 08:08:07;;;;;;;21.00;18.07;;;;;;;5.35;67.77;102381.63;1738772;82;21188;-46
2021/01/11 08:10:35;;;;;;;27.77;20.27;;;;;;;5.42;67.71;102395.16;1700455;84;21654;-46
2021/01/11 08:13:09;;;;;;;29.57;22.80;;;;;;;5.43;67.67;102391.72;1699682;84;21165;-46
2021/01/11 08:15:43;;;;;;;28.05;21.70;;;;;;;5.45;67.83;102393.92;1771605;79;22915;-46
2021/01/11 08:18:12;;;;;;;28.00;22.25;;;;;;;5.42;67.92;102397.73;1725450;82;21313;-46
2021/01/11 08:20:40;;;;;;;28.55;23.20;;;;;;;5.41;67.92;102398.15;1737848;82;21291;-47
2021/01/11 08:23:12;;;;;;;29.60;23.12;;;;;;;5.43;67.91;102409.80;1740439;82;21145;-46
2021/01/11 08:25:40;;;;;;;29.90;22.55;;;;;;;5.49;68.01;102404.78;1742085;82;21172;-46
2021/01/11 08:28:12;;;;;;;27.73;21.95;;;;;;;5.52;68.00;102399.27;1734438;82;21136;-46
2021/01/11 08:30:41;;;;;;;23.98;19.52;;;;;;;5.59;67.91;102393.84;1744230;82;21287;-46
2021/01/11 08:33:09;;;;;;;20.25;14.60;;;;;;;5.67;67.85;102389.73;1732185;82;21608;-46
2021/01/11 08:35:37;;;;;;;12.63;9.85;;;;;;;5.69;67.68;102384.19;1743266;82;21181;-46
2021/01/11 08:38:09;;;;;;;8.78;6.50;;;;;;;5.72;67.59;102377.82;1735888;82;21148;-46
2021/01/11 08:40:35;;;;;;;7.62;6.28;;;;;;;5.76;67.62;102378.34;1738777;82;21604;-46
2021/01/11 08:43:25;;;;;;;7.45;5.95;;;;;;;5.80;67.56;102363.38;1740235;82;21141;-46
2021/01/11 08:45:53;;;;;;;7.00;5.83;;;;;;;5.85;67.36;102372.15;1738350;82;21321;-46
2021/01/11 08:48:25;;;;;;;7.97;6.20;;;;;;;5.90;67.30;102366.65;1740367;81;21133;-46
2021/01/11 08:50:57;;;;;;;10.85;6.40;;;;;;;5.96;66.91;102358.16;1734944;82;21584;-46
2021/01/11 08:53:29;;;;;;;8.70;5.80;;;;;;;5.98;66.70;102344.44;1742480;82;21176;-46
2021/01/11 08:56:12;;;;;;;5.50;4.97;;;;;;;6.02;66.59;102364.34;1734668;82;21109;-46
2021/01/11 08:58:50;;;;;;;6.40;5.03;;;;;;;6.05;66.43;102367.00;1734428;82;21152;-46
2021/01/11 09:03:58;;;;;;;7.62;5.83;;;;;;;6.17;66.11;102386.66;1808090;79;23078;-46
2021/01/11 09:06:44;;;;;;;8.70;5.28;;;;;;;6.14;65.83;102395.61;1775879;80;21161;-46
2021/01/11 09:09:16;;;;;;;6.80;5.28;;;;;;;6.14;65.82;102386.57;1780808;80;21132;-46
2021/01/11 09:11:47;;;;;;;6.83;6.00;;;;;;;6.17;65.65;102394.81;1718237;83;21166;-46
2021/01/11 09:14:18;;;;;;;6.12;4.50;;;;;;;6.18;65.74;102410.34;1724501;83;21604;-46
2021/01/11 09:16:47;;;;;;;6.95;5.33;;;;;;;6.24;65.73;102414.40;1724452;82;21169;-46
2021/01/11 09:19:18;;;;;;;6.05;5.37;;;;;;;6.26;65.37;102409.25;1724284;83;21199;-46
2021/01/11 09:22:05;;;;;;;7.80;5.95;;;;;;;6.25;65.34;102404.49;1724377;83;21146;-46
2021/01/11 09:24:34;;;;;;;10.05;6.30;;;;;;;6.24;65.06;102406.64;1724559;83;21162;-46
2021/01/11 09:27:03;;;;;;;12.05;8.60;;;;;;;6.24;65.16;102404.05;1724339;83;21311;-46
2021/01/11 09:29:33;;;;;;;21.10;16.70;;;;;;;6.24;65.17;102411.81;1678661;83;21253;-46
2021/01/11 09:32:01;;;;;;;21.52;19.15;;;;;;;6.23;65.42;102406.58;1704018;83;21153;-46
2021/01/11 09:34:30;;;;;;;23.73;19.32;;;;;;;6.21;65.26;102392.34;1724358;83;21305;-46
2021/01/11 09:36:58;;;;;;;26.82;22.13;;;;;;;6.15;65.22;102375.41;1724472;82;21233;-46
2021/01/11 09:39:27;;;;;;;27.60;21.57;;;;;;;6.07;65.19;102371.79;1724246;83;21189;-46
2021/01/11 09:41:56;;;;;;;27.00;22.27;;;;;;;6.04;65.27;102358.78;1724382;83;21170;-47
2021/01/11 09:44:24;;;;;;;26.95;22.62;;;;;;;5.99;65.36;102355.66;1723322;83;21575;-46
2021/01/11 09:46:54;;;;;;;22.25;18.45;;;;;;;5.95;65.51;102363.77;1724336;83;21315;-46
2021/01/11 09:49:23;;;;;;;24.10;20.00;;;;;;;5.90;65.69;102342.52;1724345;83;21304;-46
2021/01/11 09:51:52;;;;;;;26.80;19.90;;;;;;;5.83;65.84;102329.88;1724433;83;21122;-46
2021/01/11 09:54:21;;;;;;;25.37;20.60;;;;;;;5.79;66.19;102353.86;1724301;83;21383;-46
2021/01/11 09:56:49;;;;;;;25.40;19.90;;;;;;;5.75;66.33;102357.21;1724314;83;21161;-46
2021/01/11 09:59:17;;;;;;;30.35;22.95;;;;;;;5.74;66.41;102357.66;1724216;83;21190;-46
2021/01/11 10:01:49;;;;;;;27.05;21.15;;;;;;;5.70;66.53;102351.09;1724159;83;21134;-46
2021/01/11 10:04:18;;;;;;;27.20;20.02;;;;;;;5.69;66.77;102350.20;1685581;84;21137;-46
2021/01/11 10:06:49;;;;;;;28.27;20.80;;;;;;;5.69;66.98;102346.74;1686082;85;21176;-46
2021/01/11 10:09:21;;;;;;;30.32;22.07;;;;;;;5.69;67.05;102346.74;1745134;80;21144;-46
2021/01/11 10:11:54;;;;;;;30.65;21.33;;;;;;;5.65;67.04;102347.09;1699712;83;21160;-46
2021/01/11 10:14:23;;;;;;;26.17;22.07;;;;;;;5.62;67.13;102344.87;1673153;85;21177;-46
2021/01/11 10:16:51;;;;;;;29.50;21.52;;;;;;;5.58;67.19;102347.81;1672480;85;21228;-47
2021/01/11 10:19:22;;;;;;;28.73;22.40;;;;;;;5.56;67.51;102346.87;1672926;85;21205;-46
2021/01/11 10:21:51;;;;;;;27.77;22.58;;;;;;;5.58;67.79;102343.94;1671985;85;21632;-47
2021/01/11 10:24:20;;;;;;;34.92;25.20;;;;;;;5.58;67.71;102356.84;1671333;85;21283;-46
2021/01/11 10:26:50;;;;;;;33.88;24.75;;;;;;;5.61;67.87;102361.19;1674630;85;21141;-46
2021/01/11 10:29:20;;;;;;;29.42;23.80;;;;;;;5.65;67.73;102363.00;1682760;85;21157;-46
2021/01/11 10:31:48;;;;;;;29.90;23.00;;;;;;;5.68;67.67;102363.09;1676478;85;21143;-46
2021/01/11 10:36:01;;;;;;;35.25;26.68;;;;;;;5.52;68.66;102367.44;1813855;77;26709;-45
2021/01/11 10:38:30;;;;;;;30.15;25.32;;;;;;;5.72;68.01;102357.16;1712322;82;21244;-45
2021/01/11 10:40:59;;;;;;;27.70;21.73;;;;;;;5.79;67.83;102368.06;1705922;81;22528;-45
2021/01/11 10:43:29;;;;;;;32.25;24.90;;;;;;;5.82;67.50;102370.73;1713334;82;21256;-45
2021/01/11 10:45:59;;;;;;;33.13;24.98;;;;;;;5.79;67.38;102366.78;1730220;82;21188;-45
2021/01/11 10:48:28;;;;;;;30.92;24.82;;;;;;;5.80;67.50;102356.91;1742032;81;21181;-45
2021/01/11 10:50:59;;;;;;;34.10;25.07;;;;;;;5.84;67.58;102351.02;1778689;80;21168;-45
2021/01/11 10:53:27;;;;;;;34.38;24.07;;;;;;;5.86;67.58;102322.21;1757191;80;21576;-46
2021/01/11 10:55:55;;;;;;;28.20;22.37;;;;;;;5.87;67.51;102317.52;1769006;80;21136;-45
2021/01/11 10:58:23;;;;;;;35.10;27.15;;;;;;;5.88;67.55;102315.78;1789457;79;21173;-44
2021/01/11 11:00:51;;;;;;;40.90;30.43;;;;;;;5.89;67.65;102309.38;1783239;79;21167;-45
2021/01/11 11:03:20;;;;;;;41.98;31.07;;;;;;;5.92;67.57;102296.51;1750674;81;21624;-45
2021/01/11 11:05:50;;;;;;;40.15;28.87;;;;;;;5.95;67.71;102298.30;1722690;82;21173;-45
2021/01/11 11:08:20;;;;;;;37.80;29.07;;;;;;;5.99;67.70;102300.98;1717291;82;21133;-45
2021/01/11 11:10:48;;;;;;;34.65;27.50;;;;;;;6.03;67.72;102305.79;1722911;82;21589;-45
2021/01/11 11:13:17;;;;;;;31.02;26.45;;;;;;;6.05;67.28;102317.91;1740461;81;21494;-45
2021/01/11 11:15:47;;;;;;;35.25;25.92;;;;;;;6.03;67.19;102315.71;1725080;82;21371;-45
2021/01/11 11:18:15;;;;;;;37.08;28.30;;;;;;;6.02;67.21;102319.12;1753617;80;21294;-46
2021/01/11 11:20:45;;;;;;;37.33;27.40;;;;;;;6.04;67.63;102323.90;1741136;81;21173;-45
2021/01/11 11:23:14;;;;;;;38.02;26.35;;;;;;;6.08;67.51;102319.25;1756223;80;22046;-45
2021/01/11 11:25:44;;;;;;;51.42;32.65;;;;;;;6.12;67.45;102318.47;1745533;80;21592;-45
2021/01/11 11:28:13;;;;;;;41.92;31.30;;;;;;;6.12;67.17;102326.22;1734687;80;21636;-46
2021/01/11 11:30:43;;;;;;;41.20;31.00;;;;;;;6.11;67.17;102327.08;1726220;80;21214;-45
2021/01/11 11:33:11;;;;;;;39.80;31.27;;;;;;;6.11;66.93;102320.63;1750860;81;21187;-45
2021/01/11 11:35:41;;;;;;;42.25;31.80;;;;;;;6.11;67.01;102311.58;1698097;83;21189;-45
2021/01/11 11:38:09;;;;;;;36.90;29.02;;;;;;;6.11;67.25;102312.87;1743081;81;21321;-46
2021/01/11 11:40:39;;;;;;;34.92;27.27;;;;;;;6.11;67.48;102308.98;1748608;80;21259;-45
2021/01/11 11:43:09;;;;;;;40.52;27.98;;;;;;;6.11;67.30;102313.28;1734442;81;21137;-45
2021/01/11 11:45:37;;;;;;;38.00;28.73;;;;;;;6.08;67.35;102302.45;1683864;84;22070;-45